GLD1772 SBBR-SBPJ
Flight info
| Callsign | GLD1772 |
|---|---|
| Flight time | 1h 3m |
| Altitude | 38000 |
| Route | ILKUS UZ26 IRISO |
| Aircraft | B738/M-SDE2E3FGHIRWXY/LB1 |
Departure
| Time | 2026-05-08 21:05 |
|---|---|
| Airport | Presidente Juscelino Kubitschek International Airport (SBBR) |
Arrival
| Time | 2026-05-08 22:08 |
|---|---|
| Airport | Brigadeiro Lysias Rodrigues Airport (SBPJ) |
| Time | Latitude | Longitude | Altitude | Speed | Heading |
|---|---|---|---|---|---|
| 2026-05-08 20:19 | -15.87188 | -47.91731 | 3462 ft | 0 kts | 266° |
| 2026-05-08 20:51 | -15.87187 | -47.91728 | 3464 ft | 2 kts | 266° |
| 2026-05-08 20:51 | -15.87187 | -47.91712 | 3462 ft | 2 kts | 269° |
| 2026-05-08 20:51 | -15.87187 | -47.91695 | 3462 ft | 2 kts | 279° |
| 2026-05-08 20:52 | -15.87193 | -47.91679 | 3462 ft | 2 kts | 333° |
| 2026-05-08 20:52 | -15.87205 | -47.91676 | 3461 ft | 1 kts | 358° |
| 2026-05-08 20:52 | -15.87206 | -47.91676 | 3462 ft | 0 kts | 358° |
| 2026-05-08 20:57 | -15.87204 | -47.91676 | 3463 ft | 1 kts | 358° |
| 2026-05-08 20:57 | -15.87182 | -47.91677 | 3462 ft | 5 kts | 356° |
| 2026-05-08 20:58 | -15.87165 | -47.91679 | 3464 ft | 5 kts | 355° |
| 2026-05-08 20:58 | -15.87113 | -47.91683 | 3464 ft | 10 kts | 355° |
| 2026-05-08 20:58 | -15.87042 | -47.91688 | 3464 ft | 10 kts | 356° |
| 2026-05-08 20:58 | -15.86970 | -47.91692 | 3464 ft | 10 kts | 356° |
| 2026-05-08 20:59 | -15.86901 | -47.91697 | 3464 ft | 10 kts | 355° |
| 2026-05-08 20:59 | -15.86834 | -47.91703 | 3464 ft | 10 kts | 357° |
| 2026-05-08 20:59 | -15.86768 | -47.91707 | 3464 ft | 9 kts | 356° |
| 2026-05-08 20:59 | -15.86704 | -47.91711 | 3464 ft | 9 kts | 357° |
| 2026-05-08 21:00 | -15.86643 | -47.91722 | 3463 ft | 9 kts | 334° |
| 2026-05-08 21:00 | -15.86611 | -47.91773 | 3463 ft | 9 kts | 291° |
| 2026-05-08 21:00 | -15.86567 | -47.91809 | 3463 ft | 9 kts | 350° |
| 2026-05-08 21:00 | -15.86510 | -47.91825 | 3463 ft | 8 kts | 322° |
| 2026-05-08 21:01 | -15.86495 | -47.91881 | 3462 ft | 8 kts | 268° |
| 2026-05-08 21:01 | -15.86499 | -47.91940 | 3463 ft | 9 kts | 267° |
| 2026-05-08 21:01 | -15.86502 | -47.92005 | 3462 ft | 11 kts | 266° |
| 2026-05-08 21:01 | -15.86507 | -47.92086 | 3461 ft | 12 kts | 265° |
| 2026-05-08 21:02 | -15.86513 | -47.92171 | 3462 ft | 13 kts | 264° |
| 2026-05-08 21:02 | -15.86524 | -47.92263 | 3461 ft | 13 kts | 265° |
| 2026-05-08 21:02 | -15.86526 | -47.92361 | 3461 ft | 14 kts | 265° |
| 2026-05-08 21:02 | -15.86535 | -47.92464 | 3462 ft | 14 kts | 266° |
| 2026-05-08 21:03 | -15.86541 | -47.92573 | 3461 ft | 17 kts | 267° |
| 2026-05-08 21:03 | -15.86548 | -47.92701 | 3463 ft | 18 kts | 265° |
| 2026-05-08 21:03 | -15.86518 | -47.92762 | 3467 ft | 10 kts | 339° |
| 2026-05-08 21:03 | -15.86447 | -47.92769 | 3466 ft | 11 kts | 1° |
| 2026-05-08 21:04 | -15.86374 | -47.92724 | 3464 ft | 13 kts | 43° |
| 2026-05-08 21:04 | -15.86349 | -47.92634 | 3464 ft | 15 kts | 85° |
| 2026-05-08 21:04 | -15.86327 | -47.92328 | 3467 ft | 81 kts | 86° |
| 2026-05-08 21:04 | -15.86279 | -47.91484 | 3467 ft | 151 kts | 87° |
| 2026-05-08 21:05 | -15.86208 | -47.90336 | 4039 ft | 166 kts | 87° |
| 2026-05-08 21:05 | -15.86128 | -47.89094 | 4818 ft | 174 kts | 84° |
| 2026-05-08 21:05 | -15.86032 | -47.87828 | 5613 ft | 185 kts | 85° |
| 2026-05-08 21:05 | -15.85949 | -47.86401 | 5998 ft | 209 kts | 85° |
| 2026-05-08 21:06 | -15.85853 | -47.84804 | 6201 ft | 233 kts | 85° |
| 2026-05-08 21:06 | -15.85743 | -47.83018 | 6349 ft | 262 kts | 85° |
| 2026-05-08 21:06 | -15.85629 | -47.81059 | 6695 ft | 280 kts | 85° |
| 2026-05-08 21:06 | -15.85124 | -47.79124 | 7537 ft | 280 kts | 62° |
| 2026-05-08 21:07 | -15.83964 | -47.77492 | 8340 ft | 284 kts | 42° |
| 2026-05-08 21:07 | -15.82357 | -47.76311 | 9186 ft | 286 kts | 28° |
| 2026-05-08 21:07 | -15.80625 | -47.75313 | 9926 ft | 285 kts | 21° |
| 2026-05-08 21:07 | -15.78674 | -47.75164 | 9980 ft | 287 kts | 339° |
| 2026-05-08 21:08 | -15.76935 | -47.76142 | 10019 ft | 292 kts | 328° |
| 2026-05-08 21:08 | -15.75175 | -47.77195 | 10007 ft | 290 kts | 332° |
| 2026-05-08 21:08 | -15.73389 | -47.78155 | 10004 ft | 289 kts | 333° |
| 2026-05-08 21:08 | -15.71583 | -47.79064 | 10001 ft | 288 kts | 334° |
| 2026-05-08 21:09 | -15.69768 | -47.79953 | 10012 ft | 288 kts | 334° |
| 2026-05-08 21:09 | -15.67950 | -47.80837 | 10017 ft | 289 kts | 334° |
| 2026-05-08 21:09 | -15.66144 | -47.81741 | 10049 ft | 289 kts | 333° |
| 2026-05-08 21:09 | -15.64321 | -47.82683 | 10124 ft | 300 kts | 333° |
| 2026-05-08 21:10 | -15.62378 | -47.83695 | 10308 ft | 325 kts | 333° |
| 2026-05-08 21:10 | -15.60294 | -47.84781 | 10690 ft | 342 kts | 333° |
| 2026-05-08 21:10 | -15.58154 | -47.85893 | 11404 ft | 346 kts | 334° |
| 2026-05-08 21:10 | -15.55990 | -47.87017 | 12134 ft | 350 kts | 334° |
| 2026-05-08 21:11 | -15.53794 | -47.88156 | 12830 ft | 355 kts | 334° |
| 2026-05-08 21:11 | -15.52214 | -47.88974 | 13328 ft | 358 kts | 335° |
| 2026-05-08 21:11 | -15.49979 | -47.90132 | 14011 ft | 361 kts | 335° |
| 2026-05-08 21:11 | -15.47712 | -47.91306 | 14585 ft | 366 kts | 335° |
| 2026-05-08 21:12 | -15.45419 | -47.92492 | 15165 ft | 371 kts | 335° |
| 2026-05-08 21:12 | -15.43883 | -47.93286 | 15549 ft | 374 kts | 335° |
| 2026-05-08 21:12 | -15.41544 | -47.94496 | 16142 ft | 378 kts | 335° |
| 2026-05-08 21:12 | -15.39185 | -47.95715 | 16702 ft | 382 kts | 335° |
| 2026-05-08 21:13 | -15.36791 | -47.96954 | 17254 ft | 386 kts | 335° |
| 2026-05-08 21:13 | -15.34380 | -47.98199 | 17808 ft | 390 kts | 335° |
| 2026-05-08 21:13 | -15.31941 | -47.99459 | 18339 ft | 394 kts | 335° |
| 2026-05-08 21:13 | -15.29481 | -48.00730 | 18788 ft | 398 kts | 334° |
| 2026-05-08 21:14 | -15.26990 | -48.02016 | 19277 ft | 400 kts | 334° |
| 2026-05-08 21:14 | -15.24496 | -48.03304 | 19772 ft | 402 kts | 334° |
| 2026-05-08 21:14 | -15.21978 | -48.04604 | 20205 ft | 407 kts | 334° |
| 2026-05-08 21:14 | -15.19435 | -48.05917 | 20647 ft | 410 kts | 334° |
| 2026-05-08 21:15 | -15.16876 | -48.07237 | 21112 ft | 413 kts | 334° |
| 2026-05-08 21:15 | -15.14295 | -48.08568 | 21552 ft | 416 kts | 334° |
| 2026-05-08 21:15 | -15.11695 | -48.09909 | 21980 ft | 419 kts | 334° |
| 2026-05-08 21:15 | -15.09112 | -48.11240 | 22406 ft | 422 kts | 334° |
| 2026-05-08 21:16 | -15.06475 | -48.12599 | 22832 ft | 425 kts | 334° |
| 2026-05-08 21:16 | -15.03820 | -48.13968 | 23278 ft | 427 kts | 334° |
| 2026-05-08 21:16 | -15.01146 | -48.15345 | 23626 ft | 432 kts | 334° |
| 2026-05-08 21:16 | -14.98448 | -48.16735 | 23912 ft | 436 kts | 334° |
| 2026-05-08 21:17 | -14.95720 | -48.18139 | 24224 ft | 439 kts | 334° |
| 2026-05-08 21:17 | -14.92976 | -48.19483 | 24717 ft | 436 kts | 340° |
| 2026-05-08 21:17 | -14.90009 | -48.20113 | 25043 ft | 438 kts | 358° |
| 2026-05-08 21:17 | -14.86956 | -48.20192 | 25390 ft | 440 kts | 359° |
| 2026-05-08 21:18 | -14.83878 | -48.20240 | 25682 ft | 444 kts | 359° |
| 2026-05-08 21:18 | -14.80784 | -48.20287 | 26025 ft | 445 kts | 359° |
| 2026-05-08 21:18 | -14.77685 | -48.20343 | 26384 ft | 447 kts | 358° |
| 2026-05-08 21:18 | -14.74571 | -48.20410 | 26695 ft | 449 kts | 358° |
| 2026-05-08 21:19 | -14.71440 | -48.20487 | 27021 ft | 451 kts | 358° |
| 2026-05-08 21:19 | -14.68304 | -48.20571 | 27359 ft | 452 kts | 358° |
| 2026-05-08 21:19 | -14.65156 | -48.20658 | 27679 ft | 454 kts | 358° |
| 2026-05-08 21:19 | -14.61986 | -48.20747 | 27991 ft | 456 kts | 358° |
| 2026-05-08 21:20 | -14.58807 | -48.20837 | 28289 ft | 458 kts | 358° |
| 2026-05-08 21:20 | -14.55621 | -48.20927 | 28587 ft | 460 kts | 358° |
| 2026-05-08 21:20 | -14.52418 | -48.21018 | 28878 ft | 461 kts | 358° |
| 2026-05-08 21:20 | -14.49197 | -48.21108 | 29158 ft | 463 kts | 358° |
| 2026-05-08 21:21 | -14.45970 | -48.21199 | 29440 ft | 465 kts | 358° |
| 2026-05-08 21:21 | -14.42733 | -48.21289 | 29719 ft | 467 kts | 358° |
| 2026-05-08 21:21 | -14.39475 | -48.21381 | 29984 ft | 468 kts | 358° |
| 2026-05-08 21:21 | -14.36212 | -48.21472 | 30195 ft | 470 kts | 358° |
| 2026-05-08 21:22 | -14.32982 | -48.21562 | 30416 ft | 472 kts | 357° |
| 2026-05-08 21:22 | -14.29689 | -48.21654 | 30637 ft | 473 kts | 357° |
| 2026-05-08 21:22 | -14.26394 | -48.21746 | 30877 ft | 474 kts | 357° |
| 2026-05-08 21:22 | -14.23100 | -48.21838 | 31205 ft | 473 kts | 357° |
| 2026-05-08 21:23 | -14.19814 | -48.21930 | 31550 ft | 471 kts | 357° |
| 2026-05-08 21:23 | -14.16542 | -48.22021 | 31882 ft | 470 kts | 357° |
| 2026-05-08 21:23 | -14.13273 | -48.22112 | 32186 ft | 470 kts | 356° |
| 2026-05-08 21:23 | -14.10005 | -48.22203 | 32496 ft | 470 kts | 356° |
| 2026-05-08 21:24 | -14.06746 | -48.22294 | 32829 ft | 469 kts | 356° |
| 2026-05-08 21:24 | -14.03488 | -48.22384 | 33156 ft | 468 kts | 356° |
| 2026-05-08 21:24 | -14.00229 | -48.22475 | 33477 ft | 467 kts | 356° |
| 2026-05-08 21:24 | -13.96988 | -48.22565 | 33831 ft | 466 kts | 356° |
| 2026-05-08 21:25 | -13.93749 | -48.22655 | 34120 ft | 465 kts | 356° |
| 2026-05-08 21:25 | -13.90515 | -48.22746 | 34375 ft | 465 kts | 356° |
| 2026-05-08 21:25 | -13.87278 | -48.22836 | 34641 ft | 464 kts | 355° |
| 2026-05-08 21:25 | -13.84052 | -48.22926 | 34921 ft | 464 kts | 355° |
| 2026-05-08 21:26 | -13.80830 | -48.23015 | 35191 ft | 462 kts | 355° |
| 2026-05-08 21:26 | -13.77617 | -48.23104 | 35450 ft | 462 kts | 355° |
| 2026-05-08 21:26 | -13.74401 | -48.23194 | 35670 ft | 462 kts | 355° |
| 2026-05-08 21:26 | -13.71193 | -48.23283 | 35927 ft | 461 kts | 355° |
| 2026-05-08 21:27 | -13.67986 | -48.23372 | 36199 ft | 460 kts | 355° |
| 2026-05-08 21:27 | -13.64788 | -48.23461 | 36442 ft | 460 kts | 355° |
| 2026-05-08 21:27 | -13.61588 | -48.23550 | 36687 ft | 459 kts | 354° |
| 2026-05-08 21:27 | -13.58396 | -48.23638 | 36956 ft | 458 kts | 354° |
| 2026-05-08 21:28 | -13.55212 | -48.23727 | 37214 ft | 457 kts | 354° |
| 2026-05-08 21:28 | -13.52032 | -48.23815 | 37446 ft | 457 kts | 354° |
| 2026-05-08 21:28 | -13.48892 | -48.23902 | 37661 ft | 457 kts | 354° |
| 2026-05-08 21:28 | -13.45670 | -48.23992 | 37903 ft | 457 kts | 354° |
| 2026-05-08 21:29 | -13.42527 | -48.24082 | 37892 ft | 460 kts | 354° |
| 2026-05-08 21:29 | -13.36156 | -48.24257 | 37923 ft | 456 kts | 354° |
| 2026-05-08 21:30 | -13.29832 | -48.24430 | 37924 ft | 453 kts | 354° |
| 2026-05-08 21:30 | -13.23553 | -48.24603 | 37928 ft | 450 kts | 354° |
| 2026-05-08 21:31 | -13.17300 | -48.24777 | 37929 ft | 449 kts | 354° |
| 2026-05-08 21:31 | -13.11056 | -48.24950 | 37932 ft | 448 kts | 354° |
| 2026-05-08 21:32 | -13.04772 | -48.25125 | 37927 ft | 449 kts | 354° |
| 2026-05-08 21:32 | -12.98508 | -48.25298 | 37932 ft | 451 kts | 354° |
| 2026-05-08 21:33 | -12.92263 | -48.25471 | 37930 ft | 453 kts | 354° |
| 2026-05-08 21:33 | -12.85945 | -48.25646 | 37919 ft | 455 kts | 354° |
| 2026-05-08 21:34 | -12.79600 | -48.25820 | 37930 ft | 457 kts | 354° |
| 2026-05-08 21:34 | -12.73243 | -48.25996 | 37920 ft | 458 kts | 354° |
| 2026-05-08 21:35 | -12.66855 | -48.26171 | 37918 ft | 459 kts | 354° |
| 2026-05-08 21:35 | -12.60476 | -48.26347 | 37912 ft | 459 kts | 354° |
| 2026-05-08 21:36 | -12.54106 | -48.26522 | 37910 ft | 458 kts | 354° |
| 2026-05-08 21:36 | -12.47743 | -48.26697 | 37913 ft | 457 kts | 354° |
| 2026-05-08 21:37 | -12.41393 | -48.26871 | 37906 ft | 455 kts | 354° |
| 2026-05-08 21:37 | -12.35068 | -48.27039 | 37910 ft | 454 kts | 354° |
| 2026-05-08 21:38 | -12.28757 | -48.27207 | 37912 ft | 453 kts | 354° |
| 2026-05-08 21:38 | -12.22462 | -48.27374 | 37913 ft | 452 kts | 354° |
| 2026-05-08 21:39 | -12.16175 | -48.27542 | 37910 ft | 452 kts | 354° |
| 2026-05-08 21:39 | -12.09885 | -48.27710 | 37909 ft | 451 kts | 354° |
| 2026-05-08 21:40 | -12.03607 | -48.27877 | 37908 ft | 451 kts | 354° |
| 2026-05-08 21:40 | -11.97328 | -48.28044 | 37905 ft | 452 kts | 354° |
| 2026-05-08 21:41 | -11.87908 | -48.28296 | 37321 ft | 459 kts | 355° |
| 2026-05-08 21:41 | -11.84727 | -48.28380 | 36716 ft | 458 kts | 355° |
| 2026-05-08 21:41 | -11.81533 | -48.28465 | 36031 ft | 459 kts | 355° |
| 2026-05-08 21:42 | -11.78338 | -48.28549 | 35376 ft | 460 kts | 356° |
| 2026-05-08 21:42 | -11.75139 | -48.28243 | 34783 ft | 466 kts | 13° |
| 2026-05-08 21:42 | -11.72169 | -48.26948 | 34306 ft | 468 kts | 31° |
| 2026-05-08 21:42 | -11.69668 | -48.24819 | 33767 ft | 470 kts | 47° |
| 2026-05-08 21:43 | -11.67795 | -48.22082 | 33007 ft | 475 kts | 63° |
| 2026-05-08 21:43 | -11.66742 | -48.18894 | 32442 ft | 474 kts | 77° |
| 2026-05-08 21:43 | -11.66135 | -48.15611 | 31986 ft | 469 kts | 79° |
| 2026-05-08 21:43 | -11.65561 | -48.12357 | 31609 ft | 462 kts | 78° |
| 2026-05-08 21:44 | -11.64952 | -48.09161 | 31284 ft | 455 kts | 78° |
| 2026-05-08 21:44 | -11.64326 | -48.06029 | 30989 ft | 447 kts | 77° |
| 2026-05-08 21:44 | -11.63495 | -48.03009 | 30632 ft | 439 kts | 64° |
| 2026-05-08 21:44 | -11.61832 | -48.00447 | 30282 ft | 432 kts | 46° |
| 2026-05-08 21:45 | -11.59541 | -47.98515 | 29850 ft | 426 kts | 30° |
| 2026-05-08 21:45 | -11.56848 | -47.97310 | 29350 ft | 422 kts | 14° |
| 2026-05-08 21:45 | -11.53960 | -47.96894 | 28800 ft | 420 kts | 359° |
| 2026-05-08 21:45 | -11.51084 | -47.97313 | 28281 ft | 418 kts | 343° |
| 2026-05-08 21:46 | -11.48444 | -47.98520 | 27812 ft | 415 kts | 328° |
| 2026-05-08 21:46 | -11.46190 | -48.00330 | 27353 ft | 413 kts | 314° |
| 2026-05-08 21:46 | -11.44465 | -48.02662 | 26908 ft | 411 kts | 302° |
| 2026-05-08 21:46 | -11.43022 | -48.05163 | 26450 ft | 409 kts | 300° |
| 2026-05-08 21:47 | -11.41635 | -48.07683 | 26010 ft | 407 kts | 299° |
| 2026-05-08 21:47 | -11.40258 | -48.10192 | 25553 ft | 406 kts | 300° |
| 2026-05-08 21:47 | -11.38871 | -48.12689 | 25111 ft | 404 kts | 300° |
| 2026-05-08 21:47 | -11.37473 | -48.15175 | 24666 ft | 403 kts | 300° |
| 2026-05-08 21:48 | -11.36071 | -48.17646 | 24226 ft | 403 kts | 300° |
| 2026-05-08 21:48 | -11.34667 | -48.20111 | 23785 ft | 402 kts | 300° |
| 2026-05-08 21:48 | -11.33262 | -48.22573 | 23304 ft | 402 kts | 300° |
| 2026-05-08 21:48 | -11.31856 | -48.25037 | 22819 ft | 401 kts | 300° |
| 2026-05-08 21:49 | -11.30459 | -48.27486 | 22377 ft | 398 kts | 301° |
| 2026-05-08 21:49 | -11.29039 | -48.29850 | 21928 ft | 395 kts | 308° |
| 2026-05-08 21:49 | -11.27085 | -48.31852 | 21382 ft | 394 kts | 321° |
| 2026-05-08 21:49 | -11.25017 | -48.33625 | 20893 ft | 393 kts | 321° |
| 2026-05-08 21:50 | -11.22928 | -48.35403 | 20473 ft | 390 kts | 321° |
| 2026-05-08 21:50 | -11.21530 | -48.36598 | 20191 ft | 388 kts | 321° |
| 2026-05-08 21:50 | -11.18787 | -48.38965 | 19630 ft | 385 kts | 321° |
| 2026-05-08 21:50 | -11.16757 | -48.40733 | 19216 ft | 383 kts | 321° |
| 2026-05-08 21:51 | -11.14745 | -48.42492 | 18799 ft | 380 kts | 321° |
| 2026-05-08 21:51 | -11.12771 | -48.44223 | 18398 ft | 378 kts | 321° |
| 2026-05-08 21:51 | -11.10787 | -48.45964 | 17950 ft | 376 kts | 321° |
| 2026-05-08 21:51 | -11.08810 | -48.47699 | 17513 ft | 373 kts | 321° |
| 2026-05-08 21:52 | -11.06857 | -48.49414 | 17091 ft | 369 kts | 321° |
| 2026-05-08 21:52 | -11.04919 | -48.51114 | 16686 ft | 366 kts | 320° |
| 2026-05-08 21:52 | -11.03003 | -48.52795 | 16284 ft | 363 kts | 320° |
| 2026-05-08 21:52 | -11.01096 | -48.54468 | 15889 ft | 360 kts | 320° |
| 2026-05-08 21:53 | -10.99210 | -48.56121 | 15497 ft | 357 kts | 320° |
| 2026-05-08 21:53 | -10.97334 | -48.57766 | 15116 ft | 354 kts | 320° |
| 2026-05-08 21:53 | -10.95474 | -48.59397 | 14732 ft | 352 kts | 320° |
| 2026-05-08 21:53 | -10.93621 | -48.61020 | 14343 ft | 350 kts | 320° |
| 2026-05-08 21:54 | -10.91705 | -48.62541 | 13937 ft | 348 kts | 332° |
| 2026-05-08 21:54 | -10.89444 | -48.63307 | 13554 ft | 343 kts | 354° |
| 2026-05-08 21:54 | -10.87077 | -48.63324 | 13176 ft | 338 kts | 4° |
| 2026-05-08 21:54 | -10.84736 | -48.63162 | 12769 ft | 336 kts | 6° |
| 2026-05-08 21:55 | -10.82414 | -48.62977 | 12387 ft | 334 kts | 6° |
| 2026-05-08 21:55 | -10.80107 | -48.62794 | 12000 ft | 332 kts | 6° |
| 2026-05-08 21:55 | -10.77817 | -48.62619 | 11638 ft | 329 kts | 6° |
| 2026-05-08 21:56 | -10.74039 | -48.62346 | 11027 ft | 325 kts | 6° |
| 2026-05-08 21:56 | -10.71031 | -48.62138 | 10542 ft | 322 kts | 6° |
| 2026-05-08 21:56 | -10.68806 | -48.61986 | 10304 ft | 316 kts | 6° |
| 2026-05-08 21:56 | -10.66645 | -48.61839 | 10155 ft | 307 kts | 6° |
| 2026-05-08 21:57 | -10.64548 | -48.61698 | 10020 ft | 297 kts | 6° |
| 2026-05-08 21:57 | -10.62513 | -48.61560 | 9860 ft | 290 kts | 6° |
| 2026-05-08 21:57 | -10.60509 | -48.61423 | 9549 ft | 288 kts | 6° |
| 2026-05-08 21:57 | -10.58515 | -48.61287 | 9234 ft | 286 kts | 6° |
| 2026-05-08 21:58 | -10.56560 | -48.61154 | 8961 ft | 284 kts | 6° |
| 2026-05-08 21:58 | -10.54591 | -48.61020 | 8661 ft | 282 kts | 6° |
| 2026-05-08 21:58 | -10.53274 | -48.60931 | 8460 ft | 281 kts | 6° |
| 2026-05-08 21:58 | -10.50698 | -48.60757 | 8080 ft | 279 kts | 6° |
| 2026-05-08 21:59 | -10.49389 | -48.60666 | 7889 ft | 278 kts | 6° |
| 2026-05-08 21:59 | -10.46844 | -48.60481 | 7522 ft | 276 kts | 6° |
| 2026-05-08 21:59 | -10.44930 | -48.60340 | 7238 ft | 276 kts | 6° |
| 2026-05-08 21:59 | -10.43018 | -48.60199 | 6957 ft | 275 kts | 6° |
| 2026-05-08 22:00 | -10.41108 | -48.60059 | 6674 ft | 275 kts | 6° |
| 2026-05-08 22:00 | -10.39823 | -48.59965 | 6473 ft | 275 kts | 6° |
| 2026-05-08 22:00 | -10.37921 | -48.59826 | 6196 ft | 274 kts | 6° |
| 2026-05-08 22:00 | -10.36020 | -48.59687 | 5890 ft | 274 kts | 6° |
| 2026-05-08 22:01 | -10.34147 | -48.59550 | 5604 ft | 273 kts | 6° |
| 2026-05-08 22:01 | -10.32255 | -48.59412 | 5317 ft | 272 kts | 6° |
| 2026-05-08 22:01 | -10.30375 | -48.59275 | 5035 ft | 271 kts | 6° |
| 2026-05-08 22:01 | -10.28504 | -48.59138 | 4793 ft | 268 kts | 6° |
| 2026-05-08 22:02 | -10.26648 | -48.58990 | 4543 ft | 265 kts | 11° |
| 2026-05-08 22:02 | -10.25015 | -48.58315 | 4453 ft | 246 kts | 40° |
| 2026-05-08 22:02 | -10.23863 | -48.57127 | 4373 ft | 229 kts | 54° |
| 2026-05-08 22:02 | -10.22944 | -48.55868 | 4269 ft | 215 kts | 56° |
| 2026-05-08 22:03 | -10.22092 | -48.54672 | 4170 ft | 203 kts | 56° |
| 2026-05-08 22:03 | -10.21288 | -48.53552 | 4133 ft | 191 kts | 56° |
| 2026-05-08 22:03 | -10.20508 | -48.52472 | 4098 ft | 190 kts | 56° |
| 2026-05-08 22:03 | -10.19805 | -48.51324 | 3872 ft | 192 kts | 74° |
| 2026-05-08 22:04 | -10.19849 | -48.50013 | 3675 ft | 185 kts | 110° |
| 2026-05-08 22:04 | -10.20457 | -48.48890 | 3473 ft | 179 kts | 122° |
| 2026-05-08 22:04 | -10.21143 | -48.47869 | 3345 ft | 174 kts | 123° |
| 2026-05-08 22:04 | -10.21835 | -48.46832 | 3113 ft | 178 kts | 122° |
| 2026-05-08 22:05 | -10.22524 | -48.45792 | 2883 ft | 176 kts | 122° |
| 2026-05-08 22:05 | -10.23186 | -48.44787 | 2650 ft | 168 kts | 122° |
| 2026-05-08 22:05 | -10.23823 | -48.43819 | 2430 ft | 162 kts | 122° |
| 2026-05-08 22:05 | -10.24433 | -48.42891 | 2228 ft | 154 kts | 122° |
| 2026-05-08 22:06 | -10.25006 | -48.42018 | 2018 ft | 143 kts | 123° |
| 2026-05-08 22:06 | -10.25541 | -48.41203 | 1836 ft | 136 kts | 123° |
| 2026-05-08 22:06 | -10.26066 | -48.40405 | 1704 ft | 135 kts | 123° |
| 2026-05-08 22:06 | -10.26604 | -48.39588 | 1468 ft | 141 kts | 124° |
| 2026-05-08 22:07 | -10.27146 | -48.38763 | 1293 ft | 140 kts | 124° |
| 2026-05-08 22:07 | -10.27687 | -48.37939 | 1104 ft | 140 kts | 124° |
| 2026-05-08 22:07 | -10.28230 | -48.37111 | 914 ft | 141 kts | 124° |
| 2026-05-08 22:07 | -10.28773 | -48.36288 | 755 ft | 137 kts | 124° |
| 2026-05-08 22:08 | -10.29281 | -48.35507 | 759 ft | 105 kts | 131° |
| 2026-05-08 22:08 | -10.29464 | -48.35235 | 767 ft | 20 kts | 126° |
| 2026-05-08 22:08 | -10.29503 | -48.35179 | 767 ft | 6 kts | 53° |
| 2026-05-08 22:08 | -10.29471 | -48.35199 | 767 ft | 7 kts | 294° |
| 2026-05-08 22:09 | -10.29445 | -48.35253 | 766 ft | 10 kts | 296° |
| 2026-05-08 22:09 | -10.29405 | -48.35318 | 765 ft | 12 kts | 301° |
| 2026-05-08 22:09 | -10.29353 | -48.35401 | 762 ft | 16 kts | 304° |
| 2026-05-08 22:09 | -10.29306 | -48.35472 | 759 ft | 10 kts | 298° |
| 2026-05-08 22:10 | -10.29331 | -48.35536 | 757 ft | 11 kts | 216° |
| 2026-05-08 22:10 | -10.29354 | -48.35552 | 759 ft | 0 kts | 214° |
| 2026-05-08 22:10 | -10.29371 | -48.35564 | 756 ft | 7 kts | 213° |
| 2026-05-08 22:10 | -10.29436 | -48.35607 | 758 ft | 11 kts | 213° |
| 2026-05-08 22:11 | -10.29447 | -48.35673 | 756 ft | 10 kts | 301° |
| 2026-05-08 22:11 | -10.29471 | -48.35717 | 757 ft | 7 kts | 206° |
| 2026-05-08 22:11 | -10.29485 | -48.35726 | 754 ft | 1 kts | 210° |
| 2026-05-08 22:11 | -10.29488 | -48.35727 | 754 ft | 0 kts | 211° |